Time;durP1;ratioP1;P1;durP2;ratioP2;P2;SDS_P1;SDS_P2;PMS_P1;PMS_P2;Temp;Humidity;BMP_temperature;BMP_pressure;BME280_temperature;BME280_humidity;BME280_pressure;Samples;Min_cycle;Max_cycle;Signal;HPM_P1;HPM_P2
2022/10/02 00:02:26;;;;;;;0.20;0.20;;;11.10;99.90;;;;;;4793851;30;20051;-76
2022/10/02 00:05:20;;;;;;;0.20;0.20;;;11.00;99.90;;;;;;4848527;29;20044;-76
2022/10/02 00:07:54;;;;;;;0.10;0.10;;;11.00;99.90;;;;;;4905165;29;20072;-76
2022/10/02 00:10:43;;;;;;;0.10;0.10;;;10.90;99.90;;;;;;4905341;29;20050;-76
2022/10/02 00:14:01;;;;;;;0.17;0.17;;;11.00;99.90;;;;;;4906126;29;20040;-76
2022/10/02 00:17:08;;;;;;;0.10;0.10;;;11.10;99.90;;;;;;4905225;29;20041;-76
2022/10/02 00:19:39;;;;;;;0.10;0.10;;;11.10;99.90;;;;;;4903848;29;20070;-77
2022/10/02 00:22:26;;;;;;;0.10;0.10;;;11.00;99.90;;;;;;4949527;28;20066;-76
2022/10/02 00:25:36;;;;;;;0.10;0.10;;;11.10;99.90;;;;;;4960542;28;20051;-76
2022/10/02 00:28:40;;;;;;;0.10;0.10;;;11.10;99.90;;;;;;4956671;28;20039;-77
2022/10/02 00:31:06;;;;;;;0.10;0.10;;;11.10;99.90;;;;;;4883525;29;20402;-76
2022/10/02 00:33:40;;;;;;;0.10;0.10;;;11.10;99.90;;;;;;4884184;29;20040;-76
2022/10/02 00:36:27;;;;;;;0.10;0.10;;;11.10;99.90;;;;;;4902218;29;20132;-77
2022/10/02 00:39:26;;;;;;;0.10;0.10;;;11.10;99.90;;;;;;4903358;29;20571;-76
2022/10/02 00:42:08;;;;;;;0.10;0.10;;;11.10;99.90;;;;;;4908154;29;20029;-77
2022/10/02 00:45:02;;;;;;;1.20;1.20;;;11.10;99.90;;;;;;4906080;29;20036;-77
2022/10/02 00:48:32;;;;;;;0.10;0.10;;;11.20;99.90;;;;;;4907055;29;20044;-77
2022/10/02 00:51:26;;;;;;;0.10;0.10;;;11.10;99.90;;;;;;4888097;29;20052;-77
2022/10/02 00:54:03;;;;;;;0.15;0.15;;;11.10;99.90;;;;;;4915237;29;20066;-76
2022/10/02 00:57:01;;;;;;;0.10;0.10;;;11.10;99.90;;;;;;4920807;29;20076;-77
2022/10/02 00:59:49;;;;;;;3.20;3.00;;;11.20;99.90;;;;;;4920832;29;20036;-77
2022/10/02 01:02:35;;;;;;;2.75;2.63;;;11.20;99.90;;;;;;4920896;29;20511;-76
2022/10/02 01:05:29;;;;;;;2.45;2.35;;;11.20;99.90;;;;;;4960826;29;20031;-76
2022/10/02 01:07:56;;;;;;;1.48;1.38;;;11.30;99.90;;;;;;4993624;28;20026;-77
2022/10/02 01:10:26;;;;;;;10.40;9.23;;;11.30;99.90;;;;;;5022023;28;20038;-76
2022/10/02 01:12:54;;;;;;;0.43;0.43;;;11.30;99.90;;;;;;5022231;28;20037;-77
2022/10/02 01:15:53;;;;;;;0.10;0.10;;;11.30;99.90;;;;;;5028598;28;20279;-77
2022/10/02 01:18:31;;;;;;;0.20;0.20;;;11.10;99.90;;;;;;5004664;28;20107;-76
2022/10/02 01:21:36;;;;;;;0.10;0.10;;;11.20;99.90;;;;;;4987441;28;20049;-77
2022/10/02 01:24:16;;;;;;;0.20;0.20;;;11.20;99.90;;;;;;4986793;28;20034;-76
2022/10/02 01:26:42;;;;;;;0.10;0.10;;;11.20;99.90;;;;;;5003657;28;20030;-76
2022/10/02 01:29:20;;;;;;;0.10;0.10;;;11.30;99.90;;;;;;4990923;28;20049;-77
2022/10/02 01:31:50;;;;;;;3.95;3.80;;;11.30;99.90;;;;;;5004129;28;20315;-77
2022/10/02 01:34:20;;;;;;;4.82;4.53;;;11.20;99.90;;;;;;5005954;28;20074;-76
2022/10/02 01:36:59;;;;;;;19.45;10.73;;;11.20;99.90;;;;;;5009719;28;20045;-77
2022/10/02 01:39:33;;;;;;;0.52;0.52;;;11.20;99.90;;;;;;5003797;28;20062;-76
2022/10/02 01:42:24;;;;;;;3.03;2.83;;;11.80;99.90;;;;;;5002834;28;20070;-76
2022/10/02 01:45:04;;;;;;;0.10;0.10;;;11.00;99.90;;;;;;4980716;28;20073;-77
2022/10/02 01:48:18;;;;;;;0.30;0.30;;;10.90;99.90;;;;;;4962582;29;20043;-76
2022/10/02 01:50:54;;;;;;;0.10;0.10;;;11.00;99.90;;;;;;4964590;29;20027;-76
2022/10/02 01:54:09;;;;;;;0.10;0.10;;;11.00;99.90;;;;;;4963938;29;20024;-76
2022/10/02 01:57:10;;;;;;;0.10;0.10;;;11.00;99.90;;;;;;4974951;28;20070;-77
2022/10/02 02:00:08;;;;;;;0.10;0.10;;;11.00;99.90;;;;;;4982703;28;20047;-75
2022/10/02 02:02:37;;;;;;;0.35;0.35;;;11.00;99.90;;;;;;4983241;28;20046;-76
2022/10/02 02:05:48;;;;;;;0.10;0.10;;;10.90;99.90;;;;;;4983430;28;20023;-76
2022/10/02 02:08:54;;;;;;;0.10;0.10;;;10.90;99.90;;;;;;4943919;29;20440;-77
2022/10/02 02:11:24;;;;;;;0.10;0.10;;;11.00;99.90;;;;;;4942132;29;20144;-77
2022/10/02 02:14:02;;;;;;;0.10;0.10;;;11.00;99.90;;;;;;4941650;29;20123;-77
2022/10/02 02:16:41;;;;;;;0.10;0.10;;;11.10;99.90;;;;;;4941916;29;20979;-76
2022/10/02 02:19:29;;;;;;;0.10;0.10;;;11.10;99.90;;;;;;4934076;29;20036;-77
2022/10/02 02:21:57;;;;;;;0.20;0.20;;;11.10;99.90;;;;;;4959612;28;20042;-76
2022/10/02 02:24:52;;;;;;;0.10;0.10;;;11.10;99.90;;;;;;4961701;29;20043;-76
2022/10/02 02:27:24;;;;;;;0.10;0.10;;;11.10;99.90;;;;;;4961521;29;20047;-76
2022/10/02 02:29:55;;;;;;;0.10;0.10;;;11.10;99.90;;;;;;4947761;29;20394;-75
2022/10/02 02:32:29;;;;;;;2.72;2.63;;;11.20;99.90;;;;;;4962645;29;20118;-76
2022/10/02 02:34:59;;;;;;;;;;;11.20;99.90;;;;;;4968521;28;20018;-76
2022/10/02 02:37:29;;;;;;;0.10;0.10;;;11.30;99.90;;;;;;4978719;28;19918;-76
2022/10/02 02:40:24;;;;;;;0.20;0.20;;;11.20;99.90;;;;;;4981000;28;20102;-76
2022/10/02 02:43:02;;;;;;;0.10;0.10;;;11.20;99.90;;;;;;4964639;28;20027;-76
2022/10/02 02:45:53;;;;;;;0.10;0.10;;;11.10;99.90;;;;;;5019681;28;20046;-76
2022/10/02 02:48:35;;;;;;;0.15;0.15;;;10.90;99.90;;;;;;5016818;28;20030;-76
2022/10/02 02:51:12;;;;;;;0.10;0.10;;;11.70;99.90;;;;;;5020128;28;20038;-77
2022/10/02 02:53:50;;;;;;;0.10;0.10;;;11.10;99.90;;;;;;5020196;28;20028;-76
2022/10/02 02:56:20;;;;;;;0.10;0.10;;;11.20;99.90;;;;;;5020843;28;20665;-76
2022/10/02 02:58:59;;;;;;;0.10;0.10;;;11.20;99.90;;;;;;5004594;28;20030;-76
2022/10/02 03:01:25;;;;;;;0.10;0.10;;;12.60;99.90;;;;;;5022486;28;20488;-76
2022/10/02 03:03:56;;;;;;;1.38;1.38;;;10.50;99.90;;;;;;5019194;28;20092;-76
2022/10/02 03:06:36;;;;;;;0.10;0.10;;;11.20;99.90;;;;;;5019669;28;20022;-76
2022/10/02 03:09:05;;;;;;;0.10;0.10;;;11.20;99.90;;;;;;5021913;28;20230;-76
2022/10/02 03:12:14;;;;;;;0.10;0.10;;;11.20;99.90;;;;;;5019919;28;20046;-76
2022/10/02 03:14:54;;;;;;;0.10;0.10;;;11.20;99.90;;;;;;4997774;28;20567;-76
2022/10/02 03:17:44;;;;;;;0.20;0.20;;;12.70;99.90;;;;;;5000905;28;20101;-76
2022/10/02 03:20:30;;;;;;;0.10;0.10;;;11.30;99.90;;;;;;4997532;28;20032;-76
2022/10/02 03:23:34;;;;;;;0.10;0.10;;;11.30;99.90;;;;;;4939431;29;20039;-77
2022/10/02 03:26:10;;;;;;;0.10;0.10;;;11.30;99.90;;;;;;4937856;29;20063;-76
2022/10/02 03:28:47;;;;;;;0.10;0.10;;;11.30;99.90;;;;;;4939311;28;20032;-77
2022/10/02 03:31:14;;;;;;;0.10;0.10;;;11.20;99.90;;;;;;4935301;29;20224;-76
2022/10/02 03:33:45;;;;;;;0.13;0.13;;;11.20;99.90;;;;;;4924377;29;20027;-77
2022/10/02 03:36:16;;;;;;;0.20;0.20;;;11.10;99.90;;;;;;4938882;29;20089;-76
2022/10/02 03:38:53;;;;;;;0.10;0.10;;;11.20;99.90;;;;;;4939806;29;20340;-76
2022/10/02 03:41:18;;;;;;;0.10;0.10;;;11.20;99.90;;;;;;4939669;29;20495;-77
2022/10/02 03:43:45;;;;;;;0.10;0.10;;;11.20;99.90;;;;;;4943477;29;20054;-77
2022/10/02 03:46:11;;;;;;;0.10;0.10;;;11.10;99.90;;;;;;4943890;29;20144;-77
2022/10/02 03:48:42;;;;;;;0.20;0.20;;;11.10;99.90;;;;;;4942598;29;20726;-76
2022/10/02 03:51:07;;;;;;;0.20;0.20;;;11.00;99.90;;;;;;4935795;29;20024;-76
2022/10/02 03:53:41;;;;;;;0.15;0.15;;;11.10;99.90;;;;;;4943617;29;20242;-77
2022/10/02 03:56:19;;;;;;;0.20;0.20;;;11.10;99.90;;;;;;4938781;29;20043;-76
2022/10/02 03:58:50;;;;;;;0.10;0.10;;;11.00;99.90;;;;;;4936481;29;20062;-76
2022/10/02 04:01:24;;;;;;;0.10;0.10;;;11.10;99.90;;;;;;5017705;28;20254;-76
2022/10/02 04:04:16;;;;;;;0.10;0.10;;;11.00;99.90;;;;;;5019659;28;20017;-76
2022/10/02 04:06:53;;;;;;;0.10;0.10;;;10.90;99.90;;;;;;5020476;28;20045;-75
2022/10/02 04:09:21;;;;;;;0.10;0.10;;;10.90;99.90;;;;;;5019120;28;20452;-77
2022/10/02 04:11:58;;;;;;;0.10;0.10;;;10.90;99.90;;;;;;5020989;28;20060;-77
2022/10/02 04:14:44;;;;;;;0.10;0.10;;;10.90;99.90;;;;;;5021283;28;20037;-77
2022/10/02 04:17:21;;;;;;;0.20;0.20;;;10.80;99.90;;;;;;5018754;28;20153;-76
2022/10/02 04:19:58;;;;;;;0.10;0.10;;;10.80;99.90;;;;;;5019066;28;20033;-75
2022/10/02 04:22:46;;;;;;;0.10;0.10;;;10.70;99.90;;;;;;5019488;28;20034;-76
2022/10/02 04:25:17;;;;;;;0.10;0.10;;;10.70;99.90;;;;;;5020695;28;20551;-76
2022/10/02 04:27:49;;;;;;;0.10;0.10;;;10.70;99.90;;;;;;5019824;28;20029;-78
2022/10/02 04:30:17;;;;;;;0.57;0.47;;;10.70;99.90;;;;;;5022772;28;20041;-77
2022/10/02 04:32:44;;;;;;;0.10;0.10;;;10.70;99.90;;;;;;5021414;28;20259;-77
2022/10/02 04:35:31;;;;;;;0.20;0.20;;;10.70;99.90;;;;;;5021639;28;20067;-76
2022/10/02 04:38:27;;;;;;;0.10;0.10;;;10.60;99.90;;;;;;5022552;28;20018;-77
2022/10/02 04:41:07;;;;;;;0.10;0.10;;;10.60;99.90;;;;;;5022295;28;20045;-76
2022/10/02 04:43:57;;;;;;;0.20;0.20;;;10.60;99.90;;;;;;5021970;28;20293;-76
2022/10/02 04:47:01;;;;;;;0.28;0.28;;;10.70;99.90;;;;;;5025151;28;20030;-76
2022/10/02 04:50:25;;;;;;;0.10;0.10;;;10.60;99.90;;;;;;5001078;28;20038;-76
2022/10/02 04:53:28;;;;;;;0.10;0.10;;;10.50;99.90;;;;;;4987480;28;20347;-76
2022/10/02 04:56:17;;;;;;;0.10;0.10;;;10.50;99.90;;;;;;4999180;28;20046;-76
2022/10/02 04:59:21;;;;;;;0.10;0.10;;;10.60;99.90;;;;;;4994426;28;20065;-76
2022/10/02 05:02:35;;;;;;;0.10;0.10;;;10.60;99.90;;;;;;5003084;28;20031;-77
2022/10/02 05:05:19;;;;;;;0.10;0.10;;;10.60;99.90;;;;;;4946843;29;20039;-78
2022/10/02 05:08:03;;;;;;;0.10;0.10;;;10.60;99.90;;;;;;4946448;29;20343;-77
2022/10/02 05:10:48;;;;;;;0.10;0.10;;;10.70;99.90;;;;;;4946706;29;20047;-77
2022/10/02 05:13:57;;;;;;;0.10;0.10;;;10.70;99.90;;;;;;4948279;29;20059;-77
2022/10/02 05:17:03;;;;;;;0.10;0.10;;;10.80;99.90;;;;;;4903365;29;20630;-77
2022/10/02 05:20:10;;;;;;;0.10;0.10;;;10.90;99.90;;;;;;4903121;29;20073;-76
2022/10/02 05:22:41;;;;;;;0.10;0.10;;;11.00;99.90;;;;;;4849485;29;20101;-77
2022/10/02 05:25:39;;;;;;;0.17;0.17;;;11.00;99.90;;;;;;4841495;29;20043;-77
2022/10/02 05:28:22;;;;;;;0.10;0.10;;;11.10;99.90;;;;;;4812485;29;20152;-76
2022/10/02 05:31:16;;;;;;;0.10;0.10;;;11.10;99.90;;;;;;4808394;29;20094;-75
2022/10/02 05:34:01;;;;;;;0.10;0.10;;;11.00;99.90;;;;;;4813725;29;20035;-77
2022/10/02 05:36:53;;;;;;;0.10;0.10;;;11.00;99.90;;;;;;4810517;29;20510;-77
2022/10/02 05:39:39;;;;;;;0.40;0.40;;;11.00;99.90;;;;;;4812653;29;20362;-76
2022/10/02 05:42:34;;;;;;;0.10;0.10;;;11.10;99.90;;;;;;4874628;29;20037;-76
2022/10/02 05:45:39;;;;;;;0.30;0.30;;;11.10;99.90;;;;;;4882978;29;20049;-77
2022/10/02 05:48:23;;;;;;;0.10;0.10;;;11.20;99.90;;;;;;4882536;29;20050;-77
2022/10/02 05:51:00;;;;;;;0.10;0.10;;;11.20;99.90;;;;;;4881218;29;20465;-77
2022/10/02 05:53:59;;;;;;;0.28;0.28;;;9.10;99.90;;;;;;4917194;29;20044;-76
2022/10/02 05:56:40;;;;;;;0.40;0.40;;;11.40;99.90;;;;;;4973967;28;20033;-77
2022/10/02 05:59:28;;;;;;;0.10;0.10;;;11.50;99.90;;;;;;5015688;28;20093;-77
2022/10/02 06:02:01;;;;;;;0.10;0.10;;;11.50;99.90;;;;;;5014167;28;20047;-76
2022/10/02 06:04:53;;;;;;;0.10;0.10;;;11.60;99.90;;;;;;5020533;28;20052;-77
2022/10/02 06:07:21;;;;;;;0.10;0.10;;;12.80;99.90;;;;;;5023279;28;20038;-77
2022/10/02 06:10:14;;;;;;;0.40;0.40;;;11.60;99.90;;;;;;5024001;28;20026;-76
2022/10/02 06:13:04;;;;;;;0.10;0.10;;;11.60;99.90;;;;;;5025612;28;20334;-77
2022/10/02 06:15:38;;;;;;;0.10;0.10;;;11.70;99.90;;;;;;5022234;28;20029;-77
2022/10/02 06:18:30;;;;;;;0.10;0.10;;;11.80;99.90;;;;;;5022940;28;20040;-77
2022/10/02 06:21:04;;;;;;;0.10;0.10;;;11.80;99.90;;;;;;5023554;28;20094;-77
2022/10/02 06:23:36;;;;;;;;;;;11.80;99.90;;;;;;5024565;28;20037;-82
2022/10/02 06:26:11;;;;;;;0.10;0.10;;;11.90;99.90;;;;;;5025150;28;19906;-78
2022/10/02 06:28:42;;;;;;;0.10;0.10;;;11.90;99.90;;;;;;5027006;28;20022;-77
2022/10/02 06:32:05;;;;;;;0.10;0.10;;;11.90;99.90;;;;;;5026281;28;20427;-78
2022/10/02 06:34:30;;;;;;;0.10;0.10;;;12.00;99.90;;;;;;5002640;28;20034;-77
2022/10/02 06:37:18;;;;;;;0.15;0.15;;;12.10;99.90;;;;;;4985583;28;20079;-76
2022/10/02 06:40:10;;;;;;;0.20;0.20;;;12.20;99.90;;;;;;4995738;28;20038;-77
2022/10/02 06:43:00;;;;;;;0.20;0.20;;;12.30;99.90;;;;;;4981028;28;20014;-77
2022/10/02 06:45:55;;;;;;;0.10;0.10;;;12.30;99.90;;;;;;4991662;28;20034;-77
2022/10/02 06:48:23;;;;;;;;;;;12.30;99.90;;;;;;4932985;29;20091;-78
2022/10/02 06:51:22;;;;;;;0.10;0.10;;;12.20;99.90;;;;;;4936042;29;19998;-77
2022/10/02 06:54:18;;;;;;;0.10;0.10;;;12.30;99.90;;;;;;4936087;29;20208;-77
2022/10/02 06:57:02;;;;;;;0.10;0.10;;;12.30;99.90;;;;;;4935724;28;20590;-78
2022/10/02 06:59:47;;;;;;;0.20;0.20;;;12.50;99.90;;;;;;4932640;29;20059;-78
2022/10/02 07:02:43;;;;;;;0.10;0.10;;;12.60;99.90;;;;;;4934575;29;20095;-77
2022/10/02 07:05:38;;;;;;;0.10;0.10;;;12.60;99.90;;;;;;4934671;29;20036;-77
2022/10/02 07:08:45;;;;;;;0.10;0.10;;;12.70;99.90;;;;;;4931781;29;20091;-78
2022/10/02 07:11:36;;;;;;;0.10;0.10;;;12.50;99.90;;;;;;4907376;29;20550;-84
2022/10/02 07:14:16;;;;;;;0.10;0.10;;;12.70;99.90;;;;;;4907007;29;20048;-80
2022/10/02 07:17:23;;;;;;;0.10;0.10;;;12.80;99.90;;;;;;4891323;29;20203;-85
2022/10/02 07:20:28;;;;;;;0.10;0.10;;;13.00;99.90;;;;;;4844393;29;20255;-82
2022/10/02 07:22:57;;;;;;;1.08;1.08;;;13.10;99.90;;;;;;4844032;29;20064;-78
2022/10/02 07:25:46;;;;;;;0.10;0.10;;;13.40;99.90;;;;;;4846744;29;20563;-78
2022/10/02 07:28:32;;;;;;;0.10;0.10;;;11.70;99.90;;;;;;4881153;29;20064;-82
2022/10/02 07:31:17;;;;;;;0.10;0.10;;;13.40;99.90;;;;;;4881152;29;20111;-82
2022/10/02 07:34:03;;;;;;;0.10;0.10;;;13.60;99.90;;;;;;4865405;29;20339;-79
2022/10/02 07:36:57;;;;;;;0.20;0.20;;;13.50;99.90;;;;;;4880776;29;20029;-87
2022/10/02 07:39:37;;;;;;;0.10;0.10;;;13.40;99.90;;;;;;4880765;29;20044;-86
2022/10/02 07:42:21;;;;;;;0.20;0.20;;;13.50;99.90;;;;;;4880867;29;20127;-82
2022/10/02 07:44:58;;;;;;;0.30;0.30;;;13.50;99.90;;;;;;4880610;29;20222;-81
2022/10/02 07:47:47;;;;;;;0.10;0.10;;;13.50;99.90;;;;;;4925300;29;20045;-84
2022/10/02 07:50:28;;;;;;;0.20;0.20;;;13.60;99.90;;;;;;4921185;29;20031;-82
2022/10/02 07:52:59;;;;;;;0.10;0.10;;;13.80;99.90;;;;;;4939337;28;20118;-81
2022/10/02 07:55:25;;;;;;;0.10;0.10;;;13.90;99.90;;;;;;4938862;29;20627;-79
2022/10/02 07:58:17;;;;;;;1.02;0.93;;;14.10;99.90;;;;;;4993273;28;20042;-81
2022/10/02 08:00:55;;;;;;;0.20;0.20;;;14.30;99.90;;;;;;4998948;28;20535;-85
2022/10/02 08:03:26;;;;;;;0.10;0.10;;;14.60;99.90;;;;;;4997710;28;20022;-81
2022/10/02 08:05:55;;;;;;;0.10;0.10;;;14.70;99.90;;;;;;4999002;28;20526;-78
2022/10/02 08:08:43;;;;;;;0.10;0.10;;;14.70;99.90;;;;;;4999080;28;20061;-87
2022/10/02 08:11:11;;;;;;;0.10;0.10;;;14.50;99.90;;;;;;5000066;28;20048;-86
2022/10/02 08:13:45;;;;;;;0.28;0.28;;;14.70;99.90;;;;;;4998992;28;20037;-80
2022/10/02 08:16:13;;;;;;;0.50;0.50;;;14.60;99.90;;;;;;4998941;28;20046;-88
2022/10/02 08:18:47;;;;;;;0.10;0.10;;;14.70;99.90;;;;;;5000364;28;20495;-84
2022/10/02 08:21:20;;;;;;;0.10;0.10;;;15.10;99.90;;;;;;5001113;28;20701;-79
2022/10/02 08:24:02;;;;;;;2.47;2.37;;;15.30;99.90;;;;;;5003529;28;20022;-84
2022/10/02 08:26:33;;;;;;;1.00;1.00;;;16.10;99.90;;;;;;5003970;28;20521;-82
2022/10/02 08:29:13;;;;;;;0.20;0.20;;;15.40;99.90;;;;;;5003109;28;20022;-86
2022/10/02 08:31:39;;;;;;;0.10;0.10;;;15.30;99.90;;;;;;5004525;28;20022;-77
2022/10/02 08:34:19;;;;;;;0.10;0.10;;;15.30;99.90;;;;;;5003623;28;20068;-78
2022/10/02 08:37:03;;;;;;;0.10;0.10;;;15.50;99.90;;;;;;5007835;28;20527;-80
2022/10/02 08:39:31;;;;;;;;;;;15.60;99.90;;;;;;5008035;28;20018;-80
2022/10/02 08:42:22;;;;;;;0.10;0.10;;;15.60;99.90;;;;;;5008914;28;19914;-78
2022/10/02 08:45:46;;;;;;;0.10;0.10;;;15.50;99.90;;;;;;5010671;28;20033;-82
2022/10/02 08:48:38;;;;;;;0.15;0.15;;;15.70;99.90;;;;;;4983003;28;20100;-81
2022/10/02 08:51:41;;;;;;;0.10;0.10;;;15.90;99.90;;;;;;4982845;28;20556;-80
2022/10/02 08:54:25;;;;;;;0.30;0.30;;;16.00;99.90;;;;;;4980264;28;20612;-77
2022/10/02 08:57:11;;;;;;;0.10;0.10;;;16.20;99.90;;;;;;4980222;28;20041;-83
2022/10/02 09:00:00;;;;;;;0.57;0.57;;;16.50;99.90;;;;;;4979709;28;20161;-85
2022/10/02 09:03:09;;;;;;;0.10;0.10;;;16.60;99.90;;;;;;4979392;28;20042;-83
2022/10/02 09:05:58;;;;;;;0.57;0.57;;;16.70;99.90;;;;;;4921024;29;20278;-81
2022/10/02 09:08:32;;;;;;;8.38;5.50;;;16.70;99.90;;;;;;4920597;28;20539;-82
2022/10/02 09:11:21;;;;;;;0.10;0.10;;;16.70;99.90;;;;;;4920209;28;20055;-83
2022/10/02 09:13:48;;;;;;;0.13;0.13;;;17.20;99.90;;;;;;4919011;29;20541;-80
2022/10/02 09:16:38;;;;;;;0.10;0.10;;;16.80;99.90;;;;;;4920222;28;20498;-78
2022/10/02 09:19:31;;;;;;;0.10;0.10;;;16.80;99.90;;;;;;4920597;29;20032;-79
2022/10/02 09:22:28;;;;;;;0.28;0.28;;;17.10;99.90;;;;;;4920593;29;20353;-77
2022/10/02 09:25:11;;;;;;;0.10;0.10;;;17.30;99.90;;;;;;4919161;29;20059;-84
2022/10/02 09:27:48;;;;;;;5.68;5.32;;;17.20;99.90;;;;;;4919968;29;20024;-83
2022/10/02 09:30:31;;;;;;;0.80;0.80;;;17.20;99.90;;;;;;4919715;29;20036;-79
2022/10/02 09:33:05;;;;;;;0.50;0.50;;;17.50;99.90;;;;;;4920042;29;20332;-87
2022/10/02 09:36:08;;;;;;;0.10;0.10;;;17.60;99.90;;;;;;4929895;28;20487;-85
2022/10/02 09:38:55;;;;;;;1.17;1.00;;;17.60;99.90;;;;;;4999700;28;20101;-84
2022/10/02 09:41:48;;;;;;;6.03;5.40;;;17.60;99.90;;;;;;4998169;28;20459;-78
2022/10/02 09:44:36;;;;;;;0.10;0.10;;;17.50;99.90;;;;;;4998210;28;20610;-79
2022/10/02 09:47:51;;;;;;;2.08;1.85;;;17.80;99.90;;;;;;4999650;28;20058;-84
2022/10/02 09:50:50;;;;;;;0.00;0.00;;;17.90;99.90;;;;;;4997275;28;20050;-82
2022/10/02 09:53:19;;;;;;;0.10;0.10;;;18.10;99.90;;;;;;4999425;28;20041;-84
2022/10/02 09:56:29;;;;;;;0.52;0.52;;;18.20;99.90;;;;;;4998190;28;20362;-86
2022/10/02 09:59:18;;;;;;;0.10;0.10;;;18.40;99.90;;;;;;4976577;28;20121;-85
2022/10/02 10:01:52;;;;;;;0.10;0.10;;;18.50;99.90;;;;;;4918407;29;20052;-85
2022/10/02 10:04:48;;;;;;;0.10;0.10;;;17.10;99.90;;;;;;4918451;29;20298;-85
2022/10/02 10:07:26;;;;;;;0.38;0.38;;;18.80;99.90;;;;;;4920020;29;20287;-80
2022/10/02 10:13:21;;;;;;;0.10;0.10;;;18.90;99.90;;;;;;5074837;28;20390;-83
2022/10/02 10:16:11;;;;;;;1.67;1.60;;;19.20;99.90;;;;;;5058197;28;20059;-80
2022/10/02 10:19:01;;;;;;;1.77;1.67;;;19.20;99.90;;;;;;5076239;28;20024;-83
2022/10/02 10:21:55;;;;;;;0.10;0.10;;;19.50;99.90;;;;;;5032744;28;20038;-83
2022/10/02 10:24:54;;;;;;;0.10;0.10;;;19.60;99.90;;;;;;5032715;28;20124;-82
2022/10/02 10:27:29;;;;;;;0.10;0.10;;;19.60;99.90;;;;;;5016687;28;20518;-83
2022/10/02 10:30:12;;;;;;;0.00;0.00;;;19.60;99.90;;;;;;5032053;28;20025;-89
2022/10/02 10:33:15;;;;;;;0.00;0.00;;;19.80;99.90;;;;;;5031833;28;20521;-85
2022/10/02 10:38:31;;;;;;;0.10;0.10;;;19.80;99.90;;;;;;5031713;28;20064;-85
2022/10/02 10:39:13;;;;;;;0.10;0.10;;;20.00;99.90;;;;;;5031452;28;20059;-83
2022/10/02 10:42:04;;;;;;;0.30;0.30;;;20.10;99.10;;;;;;5031494;28;20418;-86
2022/10/02 10:45:11;;;;;;;0.30;0.30;;;20.30;99.20;;;;;;5031467;28;20215;-80
2022/10/02 10:48:02;;;;;;;0.10;0.10;;;20.50;98.40;;;;;;5032557;28;20419;-87
2022/10/02 10:51:29;;;;;;;0.38;0.38;;;20.90;98.00;;;;;;5032048;28;20108;-82
2022/10/02 10:54:15;;;;;;;0.10;0.10;;;21.00;97.80;;;;;;4992316;28;20084;-79
2022/10/02 10:56:53;;;;;;;0.60;0.60;;;21.20;96.90;;;;;;4991836;28;20032;-82
2022/10/02 10:59:45;;;;;;;1.10;1.10;;;21.40;96.40;;;;;;5008192;28;20188;-85
2022/10/02 11:02:30;;;;;;;6.13;2.33;;;21.60;96.10;;;;;;5011535;28;20018;-85
2022/10/02 11:05:01;;;;;;;0.10;0.10;;;21.70;96.20;;;;;;5011524;28;20144;-81
2022/10/02 11:08:01;;;;;;;0.10;0.10;;;21.80;95.50;;;;;;5011772;28;20040;-78
2022/10/02 11:10:26;;;;;;;0.10;0.10;;;21.70;95.10;;;;;;5011107;28;20037;-84
2022/10/02 11:13:32;;;;;;;0.20;0.20;;;21.70;95.20;;;;;;5011771;28;20274;-86
2022/10/02 11:16:19;;;;;;;0.03;0.03;;;21.60;95.60;;;;;;5011110;28;20022;-79
2022/10/02 11:19:23;;;;;;;2.85;2.65;;;21.60;95.40;;;;;;5012102;28;20127;-84
2022/10/02 11:22:13;;;;;;;0.10;0.10;;;21.90;94.80;;;;;;5011754;28;20022;-87
2022/10/02 11:25:08;;;;;;;0.20;0.20;;;21.90;94.70;;;;;;5037053;28;20039;-86
2022/10/02 11:27:58;;;;;;;0.10;0.10;;;21.90;93.90;;;;;;5042583;28;20266;-84
2022/10/02 11:30:48;;;;;;;0.08;0.08;;;21.90;94.40;;;;;;5043050;28;20035;-85
2022/10/02 11:33:37;;;;;;;1.20;1.10;;;21.90;94.20;;;;;;5042634;28;20017;-89
2022/10/02 11:36:21;;;;;;;0.38;0.38;;;21.90;93.50;;;;;;5042603;28;20086;-81
2022/10/02 11:39:07;;;;;;;0.10;0.10;;;21.90;93.80;;;;;;5042163;28;20021;-86
2022/10/02 11:41:38;;;;;;;0.10;0.10;;;22.00;93.10;;;;;;5060324;28;20106;-85
2022/10/02 11:44:16;;;;;;;0.10;0.10;;;22.10;93.00;;;;;;5060309;28;20025;-84
2022/10/02 11:46:57;;;;;;;0.73;0.73;;;22.00;92.60;;;;;;5041983;28;20028;-82
2022/10/02 11:50:06;;;;;;;0.10;0.10;;;22.50;92.20;;;;;;5060101;28;20066;-89
2022/10/02 11:53:12;;;;;;;0.10;0.10;;;22.10;91.20;;;;;;5060497;28;20044;-83
2022/10/02 11:56:09;;;;;;;0.10;0.10;;;22.80;90.00;;;;;;5060315;28;20426;-89
2022/10/02 11:58:58;;;;;;;0.00;0.00;;;23.10;88.20;;;;;;5059859;28;20471;-88
2022/10/02 12:01:44;;;;;;;0.00;0.00;;;23.30;85.60;;;;;;5060326;28;20593;-78
2022/10/02 12:04:51;;;;;;;0.10;0.10;;;23.60;86.50;;;;;;5060142;28;20025;-83
2022/10/02 12:07:32;;;;;;;0.00;0.00;;;20.90;80.90;;;;;;5060345;28;20039;-82
2022/10/02 12:10:51;;;;;;;0.10;0.10;;;23.80;78.20;;;;;;5064331;28;20486;-84
2022/10/02 12:13:29;;;;;;;0.10;0.10;;;23.70;80.30;;;;;;5006619;28;20082;-79
2022/10/02 12:16:25;;;;;;;0.00;0.00;;;23.30;77.20;;;;;;5006998;28;20508;-84
2022/10/02 12:19:15;;;;;;;0.00;0.00;;;23.60;77.60;;;;;;5008217;28;20104;-85
2022/10/02 12:28:24;;;;;;;0.38;0.38;;;24.10;72.30;;;;;;5000496;28;20061;-77
2022/10/02 12:30:53;;;;;;;;;;;24.10;71.30;;;;;;4998862;28;20072;-84
2022/10/02 12:33:33;;;;;;;0.00;0.00;;;24.40;73.90;;;;;;4998661;28;20110;-78
2022/10/02 12:36:18;;;;;;;0.20;0.20;;;24.50;70.70;;;;;;4997530;28;20133;-82
2022/10/02 12:39:19;;;;;;;0.13;0.13;;;24.40;70.40;;;;;;4981048;28;20014;-90
2022/10/02 12:41:57;;;;;;;0.57;0.57;;;24.40;69.20;;;;;;5044811;28;20101;-80
2022/10/02 12:44:30;;;;;;;0.00;0.00;;;24.60;67.80;;;;;;5041445;28;20283;-87
2022/10/02 12:47:23;;;;;;;0.00;0.00;;;24.80;65.60;;;;;;5059715;28;20070;-83
2022/10/02 12:50:31;;;;;;;0.10;0.10;;;24.90;65.30;;;;;;5041141;28;20312;-85
2022/10/02 12:53:15;;;;;;;0.00;0.00;;;25.10;64.80;;;;;;5059148;28;20116;-82
2022/10/02 12:56:11;;;;;;;0.00;0.00;;;25.40;63.30;;;;;;5059279;28;20410;-85
2022/10/02 12:58:50;;;;;;;0.80;0.47;;;25.30;65.10;;;;;;5059212;28;20020;-81
2022/10/02 13:01:34;;;;;;;0.77;0.77;;;25.80;63.60;;;;;;5059200;28;20024;-89
2022/10/02 13:04:26;;;;;;;0.15;0.15;;;25.70;65.60;;;;;;5058873;28;20051;-78
2022/10/02 13:07:30;;;;;;;0.10;0.10;;;25.70;64.10;;;;;;5040681;28;20383;-80
2022/10/02 13:10:04;;;;;;;0.00;0.00;;;25.80;64.70;;;;;;5058588;28;20036;-82
2022/10/02 13:13:16;;;;;;;0.00;0.00;;;24.30;62.80;;;;;;5040793;28;20044;-89
2022/10/02 13:16:06;;;;;;;0.32;0.20;;;26.20;63.30;;;;;;5058587;28;20025;-83
2022/10/02 13:18:51;;;;;;;0.13;0.13;;;26.30;60.60;;;;;;5058639;28;20111;-86
2022/10/02 13:21:45;;;;;;;0.00;0.00;;;26.40;61.30;;;;;;5058933;28;20758;-80
2022/10/02 13:24:58;;;;;;;0.00;0.00;;;26.60;60.20;;;;;;5058863;28;20013;-85
2022/10/02 13:27:48;;;;;;;0.00;0.00;;;26.70;59.00;;;;;;5040980;28;20524;-81
2022/10/02 13:30:19;;;;;;;0.00;0.00;;;26.90;59.20;;;;;;5041067;28;20035;-85
2022/10/02 13:33:08;;;;;;;0.00;0.00;;;27.20;58.70;;;;;;5040820;28;20582;-78
2022/10/02 13:35:45;;;;;;;0.10;0.10;;;27.40;58.50;;;;;;5058794;28;20021;-83
2022/10/02 13:38:44;;;;;;;0.00;0.00;;;27.40;56.00;;;;;;5040944;28;20325;-84
2022/10/02 13:41:35;;;;;;;0.00;0.00;;;27.50;55.90;;;;;;5034778;28;20027;-81
2022/10/02 13:44:11;;;;;;;0.00;0.00;;;30.00;57.40;;;;;;5039228;28;20032;-82
2022/10/02 13:46:43;;;;;;;0.00;0.00;;;27.50;55.10;;;;;;5020806;28;20198;-82
2022/10/02 13:49:40;;;;;;;0.00;0.00;;;27.60;55.20;;;;;;5038901;28;20017;-81
2022/10/02 13:52:21;;;;;;;0.00;0.00;;;27.80;54.70;;;;;;5020703;28;20353;-88
2022/10/02 13:55:27;;;;;;;0.00;0.00;;;28.20;55.50;;;;;;5039345;28;20527;-81
2022/10/02 13:58:05;;;;;;;0.00;0.00;;;27.20;52.90;;;;;;5038731;28;20083;-88
2022/10/02 14:00:37;;;;;;;0.00;0.00;;;28.30;56.10;;;;;;5038699;28;20116;-85
2022/10/02 14:03:24;;;;;;;4.68;0.55;;;28.90;53.90;;;;;;5022429;28;20032;-83
2022/10/02 14:06:20;;;;;;;0.00;0.00;;;29.00;53.20;;;;;;5028981;28;20452;-85
2022/10/02 14:09:13;;;;;;;0.00;0.00;;;29.20;52.50;;;;;;5045651;28;20096;-81
2022/10/02 14:12:09;;;;;;;0.20;0.20;;;29.60;52.40;;;;;;5049109;28;20068;-82
2022/10/02 14:14:41;;;;;;;0.00;0.00;;;30.00;50.30;;;;;;5048248;28;20041;-79
2022/10/02 14:17:30;;;;;;;0.10;0.10;;;30.00;52.70;;;;;;5043459;28;20072;-86
2022/10/02 14:20:02;;;;;;;0.00;0.00;;;30.20;52.30;;;;;;5043546;28;20314;-81
2022/10/02 14:22:51;;;;;;;0.00;0.00;;;30.60;51.90;;;;;;5026041;28;20083;-81
2022/10/02 14:25:36;;;;;;;0.10;0.10;;;31.00;49.40;;;;;;5026486;28;20024;-80
2022/10/02 14:28:14;;;;;;;0.00;0.00;;;31.50;47.90;;;;;;5045462;28;20074;-82
2022/10/02 14:31:19;;;;;;;0.32;0.32;;;31.50;47.40;;;;;;5040573;28;20045;-78
2022/10/02 14:33:58;;;;;;;0.00;0.00;;;31.70;46.90;;;;;;5024282;28;20029;-80
2022/10/02 14:37:05;;;;;;;0.03;0.03;;;31.90;45.80;;;;;;5040273;28;20027;-83